Terminal Aerodrome Forecast
Issued by NWS Upton, NY

Current Version | Previous Version | Text Only | Print | Product List | Glossary On
Versions: 1 2 3 4 5 6 7 8 9 10 11 12 13 14 15 16 17 18 19 20 21 22 23 24 25 26 27 28 29 30 31 32 33 34 35 36 37 38
000
FTUS41 KOKX 270836 AAA
TAFEWR
TAF AMD
KEWR 270836Z 2709/2812 22005KT P6SM SKC
     FM271200 22008KT P6SM FEW120
     FM271600 23010G18KT P6SM BKN100
     FM271800 22013G20KT P6SM SCT070 BKN100
     FM272300 22008KT P6SM BKN100
     FM280200 21005KT P6SM BKN080
     FM280500 VRB03KT P6SM BKN080=

USA.gov is the U.S. government's official web portal to all federal, state and local government web resources and services.